Time;durP1;ratioP1;P1;durP2;ratioP2;P2;SDS_P1;SDS_P2;PMS_P1;PMS_P2;Temp;Humidity;BMP_temperature;BMP_pressure;BME280_temperature;BME280_humidity;BME280_pressure;Samples;Min_cycle;Max_cycle;Signal;HPM_P1;HPM_P2
2021/04/29 00:00:38;;;;;;;5.78;5.18;;;12.20;87.90;;;;;;5038338;28;20063;-72
2021/04/29 00:03:04;;;;;;;5.75;4.43;;;12.20;88.00;;;;;;5038345;28;20044;-72
2021/04/29 00:05:30;;;;;;;5.60;4.97;;;12.20;88.00;;;;;;5038152;28;20033;-72
2021/04/29 00:07:56;;;;;;;7.47;5.32;;;12.20;87.90;;;;;;5037968;28;20318;-72
2021/04/29 00:10:28;;;;;;;5.72;4.97;;;12.20;87.90;;;;;;5038230;28;20049;-72
2021/04/29 00:12:53;;;;;;;11.32;5.68;;;12.20;88.10;;;;;;5038218;28;20326;-72
2021/04/29 00:15:19;;;;;;;7.30;5.22;;;12.20;87.90;;;;;;5037725;28;20029;-72
2021/04/29 00:17:45;;;;;;;6.88;5.07;;;12.20;87.80;;;;;;5037767;28;20029;-72
2021/04/29 00:20:16;;;;;;;5.50;4.63;;;12.20;87.60;;;;;;5037916;28;20067;-72
2021/04/29 00:22:42;;;;;;;6.32;5.07;;;12.20;87.70;;;;;;5037955;28;20146;-72
2021/04/29 00:25:08;;;;;;;8.43;5.55;;;12.20;87.40;;;;;;5037543;28;20517;-72
2021/04/29 00:27:34;;;;;;;6.95;4.75;;;12.20;87.70;;;;;;5037906;28;20034;-72
2021/04/29 00:30:00;;;;;;;6.95;5.03;;;12.20;87.50;;;;;;5037845;28;20025;-72
2021/04/29 00:32:26;;;;;;;7.03;4.82;;;12.20;88.00;;;;;;5037481;28;20428;-72
2021/04/29 00:34:51;;;;;;;9.35;6.13;;;12.20;87.70;;;;;;5037369;28;20030;-72
2021/04/29 00:37:17;;;;;;;5.45;4.90;;;12.20;87.80;;;;;;5037406;28;20025;-72
2021/04/29 00:39:43;;;;;;;6.18;5.05;;;12.30;87.30;;;;;;5037115;28;20160;-72
2021/04/29 00:42:09;;;;;;;8.25;5.40;;;12.30;86.90;;;;;;5037653;28;20025;-72
2021/04/29 00:44:35;;;;;;;10.45;5.63;;;12.30;87.60;;;;;;5036859;28;20100;-72
2021/04/29 00:47:01;;;;;;;6.90;6.05;;;12.20;88.20;;;;;;5037239;28;20049;-72
2021/04/29 00:49:27;;;;;;;7.38;6.18;;;12.10;88.70;;;;;;5037459;28;20033;-72
2021/04/29 00:51:53;;;;;;;8.63;6.00;;;12.00;89.40;;;;;;5037524;28;20032;-72
2021/04/29 00:54:18;;;;;;;9.90;6.65;;;11.80;90.10;;;;;;5037463;28;20041;-72
2021/04/29 00:56:44;;;;;;;9.00;7.53;;;11.70;91.00;;;;;;5037073;28;20414;-72
2021/04/29 00:59:10;;;;;;;11.05;6.85;;;11.50;91.90;;;;;;5037275;28;20030;-72
2021/04/29 01:01:38;;;;;;;8.57;7.07;;;11.50;92.90;;;;;;5037033;28;20057;-72
2021/04/29 01:04:14;;;;;;;7.75;6.40;;;11.70;93.40;;;;;;5036913;28;20018;-72
2021/04/29 01:06:41;;;;;;;;;;;11.70;93.40;;;;;;5037397;28;20026;-72
2021/04/29 01:09:23;;;;;;;8.38;7.07;;;11.80;93.30;;;;;;5036881;28;19959;-72
2021/04/29 01:11:56;;;;;;;10.60;6.90;;;11.90;92.90;;;;;;5037169;28;20299;-72
2021/04/29 01:14:24;;;;;;;11.98;7.28;;;11.90;93.10;;;;;;5036746;28;20040;-72
2021/04/29 01:16:50;;;;;;;9.80;7.75;;;11.80;93.10;;;;;;5036793;28;20028;-72
2021/04/29 01:19:18;;;;;;;9.85;7.35;;;11.80;93.60;;;;;;5036668;28;20045;-72
2021/04/29 01:21:45;;;;;;;11.70;7.97;;;11.80;94.10;;;;;;5036739;28;20032;-72
2021/04/29 01:24:18;;;;;;;10.80;8.00;;;11.80;94.20;;;;;;5036926;28;20030;-72
2021/04/29 01:26:47;;;;;;;9.77;8.13;;;11.90;94.00;;;;;;5036983;28;20333;-72
2021/04/29 01:29:16;;;;;;;11.25;7.75;;;11.80;94.00;;;;;;5036933;28;20022;-72
2021/04/29 01:31:45;;;;;;;6.82;6.13;;;11.80;94.60;;;;;;5036636;28;20503;-72
2021/04/29 01:34:13;;;;;;;8.13;5.70;;;11.80;94.00;;;;;;5036512;28;20026;-72
2021/04/29 01:36:41;;;;;;;11.85;5.60;;;11.70;93.70;;;;;;5036552;28;20330;-72
2021/04/29 01:39:10;;;;;;;9.05;6.13;;;11.70;93.40;;;;;;5036286;28;20037;-72
2021/04/29 01:41:38;;;;;;;6.57;4.93;;;11.70;93.10;;;;;;5036522;28;20017;-72
2021/04/29 01:44:07;;;;;;;8.55;6.63;;;11.70;93.30;;;;;;5036452;28;20100;-72
2021/04/29 01:46:33;;;;;;;9.90;6.82;;;11.60;93.70;;;;;;5036450;28;20018;-72
2021/04/29 01:49:01;;;;;;;12.05;8.85;;;11.60;94.20;;;;;;5036761;28;20028;-72
2021/04/29 01:51:28;;;;;;;12.52;10.68;;;11.60;94.40;;;;;;5036781;28;20104;-72
2021/04/29 01:53:53;;;;;;;13.00;11.32;;;11.60;94.60;;;;;;5036581;28;20026;-72
2021/04/29 01:56:20;;;;;;;14.75;12.65;;;11.60;94.90;;;;;;5039208;28;20044;-72
2021/04/29 01:58:46;;;;;;;17.02;13.00;;;11.60;94.40;;;;;;5040654;28;20026;-72
2021/04/29 02:01:11;;;;;;;15.43;12.70;;;11.60;94.50;;;;;;5040540;28;20048;-72
2021/04/29 02:03:39;;;;;;;14.00;9.40;;;11.60;94.60;;;;;;5040221;28;20029;-72
2021/04/29 02:06:05;;;;;;;10.73;5.88;;;11.50;94.80;;;;;;5040525;28;20021;-72
2021/04/29 02:08:31;;;;;;;11.60;3.28;;;11.50;94.40;;;;;;5040492;28;20401;-72
2021/04/29 02:10:58;;;;;;;4.72;2.92;;;11.40;94.00;;;;;;5040508;28;20325;-72
2021/04/29 02:13:27;;;;;;;6.38;2.95;;;11.40;94.30;;;;;;5040415;28;20101;-72
2021/04/29 02:16:00;;;;;;;5.25;3.00;;;11.40;93.30;;;;;;5040080;28;20030;-72
2021/04/29 02:18:28;;;;;;;4.97;3.55;;;11.40;93.40;;;;;;5040087;28;20037;-72
2021/04/29 02:20:54;;;;;;;2.80;2.50;;;11.30;93.20;;;;;;5039919;28;20108;-72
2021/04/29 02:23:23;;;;;;;3.80;2.35;;;11.40;93.00;;;;;;5039860;28;20405;-72
2021/04/29 02:25:52;;;;;;;3.75;1.50;;;11.30;92.50;;;;;;5040374;28;20057;-72
2021/04/29 02:28:20;;;;;;;1.70;1.42;;;11.30;93.00;;;;;;5039870;28;20029;-72
2021/04/29 02:30:50;;;;;;;1.67;1.20;;;11.20;92.80;;;;;;5039832;28;20453;-72
2021/04/29 02:33:17;;;;;;;3.00;1.50;;;11.20;92.70;;;;;;5040373;28;20112;-72
2021/04/29 02:35:45;;;;;;;1.52;1.25;;;11.10;92.80;;;;;;5039592;28;20452;-72
2021/04/29 02:38:15;;;;;;;2.40;1.67;;;11.10;93.00;;;;;;5039877;28;20025;-72
2021/04/29 02:40:40;;;;;;;2.38;1.10;;;11.00;93.30;;;;;;5039371;28;20041;-72
2021/04/29 02:43:10;;;;;;;1.95;1.63;;;11.00;93.70;;;;;;5039928;28;20079;-72
2021/04/29 02:45:35;;;;;;;1.85;1.65;;;11.00;94.00;;;;;;5039466;28;20469;-72
2021/04/29 02:48:02;;;;;;;3.85;2.13;;;11.00;94.70;;;;;;5039468;28;20113;-72
2021/04/29 02:50:27;;;;;;;2.45;1.85;;;11.00;94.90;;;;;;5039450;28;20475;-72
2021/04/29 02:52:54;;;;;;;3.05;2.10;;;11.00;94.10;;;;;;5039662;28;20025;-72
2021/04/29 02:55:22;;;;;;;4.85;2.40;;;11.00;93.60;;;;;;5039307;28;20112;-72
2021/04/29 02:57:48;;;;;;;4.20;2.45;;;11.00;93.70;;;;;;5039609;28;20064;-72
2021/04/29 03:00:16;;;;;;;3.78;2.42;;;11.00;93.50;;;;;;5039543;28;20026;-72
2021/04/29 03:02:42;;;;;;;2.92;2.60;;;11.00;93.30;;;;;;5039504;28;20022;-72
2021/04/29 03:05:10;;;;;;;4.63;3.80;;;10.90;94.10;;;;;;5039428;28;20459;-72
2021/04/29 03:07:38;;;;;;;12.77;10.77;;;10.80;93.60;;;;;;5038675;28;20029;-72
2021/04/29 03:10:05;;;;;;;15.48;12.98;;;10.70;94.70;;;;;;5039114;28;20040;-72
2021/04/29 03:12:31;;;;;;;14.90;11.80;;;10.80;95.20;;;;;;5039022;28;20032;-72
2021/04/29 03:14:56;;;;;;;10.95;9.75;;;10.70;95.40;;;;;;5038921;28;20396;-72
2021/04/29 03:17:22;;;;;;;12.07;10.60;;;10.70;95.20;;;;;;5038928;28;20025;-72
2021/04/29 03:19:48;;;;;;;12.05;10.77;;;10.70;95.40;;;;;;5039105;28;20033;-72
2021/04/29 03:22:14;;;;;;;13.90;11.85;;;10.70;95.80;;;;;;5039128;28;20340;-72
2021/04/29 03:24:40;;;;;;;13.75;11.38;;;10.70;96.00;;;;;;5038694;28;20028;-72
2021/04/29 03:27:06;;;;;;;18.88;11.90;;;10.80;96.20;;;;;;5038772;28;20037;-72
2021/04/29 03:29:32;;;;;;;13.15;11.75;;;10.90;95.90;;;;;;5039023;28;20049;-72
2021/04/29 03:31:58;;;;;;;13.15;10.48;;;11.00;95.60;;;;;;5038961;28;20088;-72
2021/04/29 03:34:24;;;;;;;14.57;10.85;;;11.00;95.50;;;;;;5038898;28;20030;-72
2021/04/29 03:36:50;;;;;;;11.82;10.10;;;11.10;95.20;;;;;;5038897;28;20056;-72
2021/04/29 03:39:16;;;;;;;12.57;11.15;;;11.20;95.40;;;;;;5038260;28;20069;-72
2021/04/29 03:41:41;;;;;;;13.43;10.77;;;11.30;94.90;;;;;;5038431;28;20067;-72
2021/04/29 03:44:07;;;;;;;14.05;10.18;;;11.30;94.80;;;;;;5038389;28;20079;-72
2021/04/29 03:46:33;;;;;;;12.07;10.07;;;11.30;94.60;;;;;;5038692;28;20032;-72
2021/04/29 03:48:59;;;;;;;13.73;10.27;;;11.20;94.50;;;;;;5038657;28;20486;-72
2021/04/29 03:51:24;;;;;;;13.00;10.38;;;11.20;93.90;;;;;;5038672;28;20080;-72
2021/04/29 03:53:50;;;;;;;12.25;10.65;;;11.10;94.10;;;;;;5038554;28;20038;-72
2021/04/29 03:56:16;;;;;;;11.43;10.10;;;11.10;94.30;;;;;;5038162;28;20444;-72
2021/04/29 03:58:42;;;;;;;12.02;9.18;;;11.10;94.80;;;;;;5038628;28;20037;-72
2021/04/29 04:01:07;;;;;;;13.18;10.10;;;11.10;95.30;;;;;;5038433;28;20022;-72
2021/04/29 04:03:33;;;;;;;10.48;9.48;;;11.20;95.40;;;;;;5037992;28;20402;-72
2021/04/29 04:05:59;;;;;;;10.48;9.38;;;11.30;95.50;;;;;;5038291;28;20028;-72
2021/04/29 04:08:25;;;;;;;11.27;8.95;;;11.30;95.10;;;;;;5037996;28;20318;-72
2021/04/29 04:10:50;;;;;;;7.85;7.00;;;11.30;95.10;;;;;;5038286;28;20031;-72
2021/04/29 04:13:20;;;;;;;8.85;6.68;;;11.30;94.80;;;;;;5037932;28;20373;-72
2021/04/29 04:15:46;;;;;;;7.32;6.60;;;11.30;94.80;;;;;;5038043;28;20060;-72
2021/04/29 04:18:13;;;;;;;8.00;6.88;;;11.30;94.00;;;;;;5037173;28;20379;-72
2021/04/29 04:20:40;;;;;;;8.70;7.03;;;11.30;94.50;;;;;;5037558;28;20033;-72
2021/04/29 04:23:06;;;;;;;7.03;6.22;;;11.30;94.70;;;;;;5037772;28;20037;-72
2021/04/29 04:25:33;;;;;;;9.85;7.32;;;11.30;94.90;;;;;;5037883;28;20026;-72
2021/04/29 04:27:58;;;;;;;9.77;7.60;;;11.30;94.30;;;;;;5037933;28;20041;-72
2021/04/29 04:30:24;;;;;;;9.90;7.95;;;11.20;94.50;;;;;;5037609;28;20294;-72
2021/04/29 04:32:50;;;;;;;8.38;7.32;;;11.30;94.80;;;;;;5037830;28;20031;-72
2021/04/29 04:35:16;;;;;;;8.85;7.57;;;11.30;95.10;;;;;;5037410;28;20354;-72
2021/04/29 04:37:42;;;;;;;10.13;8.50;;;11.30;94.90;;;;;;5037711;28;20036;-72
2021/04/29 04:40:09;;;;;;;11.30;9.77;;;11.30;95.20;;;;;;5037293;28;20046;-72
2021/04/29 04:42:34;;;;;;;13.88;10.77;;;11.30;94.50;;;;;;5037673;28;20305;-72
2021/04/29 04:45:00;;;;;;;12.45;10.13;;;11.30;94.90;;;;;;5037207;28;20026;-72
2021/04/29 04:47:26;;;;;;;12.57;9.80;;;11.30;95.10;;;;;;5037580;28;20029;-72
2021/04/29 04:49:52;;;;;;;15.00;9.93;;;11.30;95.20;;;;;;5037527;28;20034;-72
2021/04/29 04:52:18;;;;;;;12.02;10.32;;;11.30;95.70;;;;;;5037236;28;20429;-72
2021/04/29 04:54:44;;;;;;;12.07;10.25;;;11.30;96.10;;;;;;5037528;28;20097;-72
2021/04/29 04:57:10;;;;;;;12.02;10.02;;;11.30;95.70;;;;;;5037388;28;20033;-72
2021/04/29 04:59:37;;;;;;;11.65;9.73;;;11.30;95.50;;;;;;5037250;28;20351;-72
2021/04/29 05:02:03;;;;;;;13.77;10.18;;;11.40;95.40;;;;;;5037351;28;20082;-72
2021/04/29 05:04:29;;;;;;;11.27;10.13;;;11.40;95.60;;;;;;5037150;28;20413;-72
2021/04/29 05:06:56;;;;;;;11.25;9.85;;;11.50;95.00;;;;;;5037208;28;20099;-72
2021/04/29 05:09:22;;;;;;;11.93;10.00;;;11.50;95.00;;;;;;5036946;28;20025;-72
2021/04/29 05:11:48;;;;;;;10.07;8.73;;;11.50;95.30;;;;;;5037222;28;20033;-72
2021/04/29 05:14:14;;;;;;;12.73;10.63;;;11.50;95.10;;;;;;5037129;28;20291;-72
2021/04/29 05:16:40;;;;;;;10.55;9.55;;;11.60;95.40;;;;;;5037080;28;20025;-72
2021/04/29 05:19:06;;;;;;;11.40;9.73;;;11.60;95.00;;;;;;5037112;28;20076;-72
2021/04/29 05:21:32;;;;;;;13.50;10.35;;;11.70;94.90;;;;;;5036693;28;20057;-72
2021/04/29 05:23:58;;;;;;;11.20;10.07;;;11.60;95.30;;;;;;5036915;28;20067;-72
2021/04/29 05:26:24;;;;;;;14.02;10.88;;;11.60;94.00;;;;;;5036972;28;20029;-72
2021/04/29 05:28:49;;;;;;;13.68;10.48;;;11.50;94.70;;;;;;5036970;28;20096;-72
2021/04/29 05:31:15;;;;;;;10.68;9.07;;;11.50;96.00;;;;;;5036625;28;20361;-72
2021/04/29 05:33:41;;;;;;;11.20;9.05;;;11.60;95.70;;;;;;5036806;28;20472;-72
2021/04/29 05:36:07;;;;;;;9.90;8.50;;;11.50;95.30;;;;;;5036895;28;20101;-72
2021/04/29 05:38:32;;;;;;;10.93;8.25;;;11.50;95.30;;;;;;5036877;28;20075;-72
2021/04/29 05:40:58;;;;;;;9.13;7.63;;;11.40;95.50;;;;;;5036307;28;20072;-72
2021/04/29 05:43:24;;;;;;;10.23;8.48;;;11.50;94.20;;;;;;5036510;28;20100;-72
2021/04/29 05:45:49;;;;;;;9.23;7.82;;;11.60;94.00;;;;;;5036790;28;20064;-72
2021/04/29 05:48:15;;;;;;;11.13;8.88;;;11.70;94.10;;;;;;5036501;28;20029;-72
2021/04/29 05:50:41;;;;;;;11.55;7.53;;;11.80;94.20;;;;;;5036776;28;20035;-72
2021/04/29 05:53:07;;;;;;;12.20;8.30;;;11.90;93.10;;;;;;5036373;28;20053;-72
2021/04/29 05:55:32;;;;;;;8.80;7.45;;;12.10;92.30;;;;;;5036652;28;20053;-72
2021/04/29 05:58:00;;;;;;;8.77;7.05;;;12.20;92.90;;;;;;5036701;28;20306;-72
2021/04/29 06:00:27;;;;;;;6.63;5.80;;;12.30;91.10;;;;;;5036305;28;20442;-72
2021/04/29 06:02:55;;;;;;;8.73;6.93;;;12.20;90.90;;;;;;5036691;28;20364;-72
2021/04/29 06:05:21;;;;;;;8.13;6.65;;;12.20;90.90;;;;;;5036617;28;20083;-72
2021/04/29 06:07:54;;;;;;;7.85;6.93;;;12.30;90.90;;;;;;5036607;28;20022;-72
2021/04/29 06:10:20;;;;;;;10.48;7.05;;;12.30;91.60;;;;;;5036646;28;20056;-72
2021/04/29 06:12:45;;;;;;;9.43;7.90;;;12.30;91.30;;;;;;5036223;28;20456;-72
2021/04/29 06:15:11;;;;;;;10.40;6.82;;;12.40;91.00;;;;;;5036147;28;20120;-72
2021/04/29 06:17:37;;;;;;;7.80;7.00;;;12.40;91.00;;;;;;5036519;28;20022;-72
2021/04/29 06:20:03;;;;;;;8.07;6.38;;;12.40;91.30;;;;;;5036158;28;20374;-72
2021/04/29 06:22:29;;;;;;;9.35;6.57;;;12.40;91.90;;;;;;5036184;28;20032;-72
2021/04/29 06:24:54;;;;;;;7.05;6.35;;;12.50;91.00;;;;;;5036575;28;20026;-72
2021/04/29 06:27:20;;;;;;;9.13;6.60;;;12.40;91.80;;;;;;5036106;28;20033;-72
2021/04/29 06:29:46;;;;;;;8.88;6.40;;;12.50;91.50;;;;;;5036055;28;20037;-72
2021/04/29 06:32:12;;;;;;;8.80;6.10;;;12.40;92.10;;;;;;5036083;28;20022;-72
2021/04/29 06:34:38;;;;;;;9.50;6.95;;;12.40;93.00;;;;;;5036001;28;20033;-72
2021/04/29 06:37:04;;;;;;;7.55;6.47;;;12.50;90.60;;;;;;5036097;28;20037;-72
2021/04/29 06:39:29;;;;;;;7.85;6.13;;;12.50;90.80;;;;;;5035929;28;20073;-72
2021/04/29 06:41:55;;;;;;;10.50;6.00;;;12.50;92.50;;;;;;5036478;28;20021;-72
2021/04/29 06:44:21;;;;;;;7.43;6.22;;;12.50;92.20;;;;;;5039503;28;20025;-72
2021/04/29 06:46:47;;;;;;;6.43;5.45;;;12.50;91.80;;;;;;5039513;28;20032;-72
2021/04/29 06:49:13;;;;;;;8.95;6.82;;;12.50;93.40;;;;;;5039541;28;20095;-72
2021/04/29 06:51:39;;;;;;;9.75;6.45;;;12.50;93.50;;;;;;5039452;28;20033;-72
2021/04/29 06:54:06;;;;;;;9.63;7.05;;;12.50;93.20;;;;;;5039724;28;20040;-72
2021/04/29 06:56:33;;;;;;;9.48;6.57;;;12.50;93.40;;;;;;5039658;28;20155;-72
2021/04/29 06:58:58;;;;;;;12.52;7.03;;;12.50;93.00;;;;;;5039232;28;20029;-71
2021/04/29 07:01:24;;;;;;;8.55;7.20;;;12.40;92.60;;;;;;5039572;28;20026;-71
2021/04/29 07:03:50;;;;;;;10.00;6.65;;;12.40;93.00;;;;;;5039114;28;20057;-72
2021/04/29 07:06:16;;;;;;;12.15;7.03;;;12.20;92.80;;;;;;5039162;28;20029;-71
2021/04/29 07:08:42;;;;;;;7.95;6.50;;;12.20;93.10;;;;;;5039421;28;20029;-72
2021/04/29 07:11:07;;;;;;;8.38;6.78;;;12.10;93.70;;;;;;5039451;28;20425;-72
2021/04/29 07:13:33;;;;;;;9.65;7.20;;;12.10;93.10;;;;;;5038985;28;20029;-72
2021/04/29 07:15:59;;;;;;;8.18;7.03;;;12.20;93.20;;;;;;5038982;28;20025;-71
2021/04/29 07:18:24;;;;;;;10.85;7.65;;;12.20;93.30;;;;;;5039294;28;20033;-72
2021/04/29 07:20:54;;;;;;;10.23;7.43;;;12.20;92.30;;;;;;5039139;28;20313;-72
2021/04/29 07:23:20;;;;;;;21.58;13.35;;;12.30;92.20;;;;;;5039203;28;20393;-71
2021/04/29 07:25:46;;;;;;;17.90;12.63;;;12.40;92.70;;;;;;5038746;28;20022;-72
2021/04/29 07:28:12;;;;;;;11.25;9.10;;;12.40;91.90;;;;;;5038730;28;20053;-72
2021/04/29 07:30:39;;;;;;;12.48;9.20;;;12.50;90.00;;;;;;5039065;28;20341;-72
2021/04/29 07:33:06;;;;;;;13.35;8.68;;;12.50;91.10;;;;;;5038975;28;20076;-72
2021/04/29 07:35:32;;;;;;;11.18;9.07;;;12.60;92.30;;;;;;5038539;28;20026;-72
2021/04/29 07:37:58;;;;;;;9.98;8.60;;;12.70;91.20;;;;;;5038660;28;20033;-72
2021/04/29 07:40:23;;;;;;;14.07;9.57;;;12.90;90.90;;;;;;5038341;28;20045;-72
2021/04/29 07:42:49;;;;;;;13.00;8.88;;;13.00;92.90;;;;;;5038806;28;20029;-72
2021/04/29 07:45:15;;;;;;;10.90;9.55;;;13.10;90.40;;;;;;5038656;28;20314;-72
2021/04/29 07:47:41;;;;;;;10.85;9.30;;;13.20;89.30;;;;;;5038676;28;20321;-72
2021/04/29 07:50:08;;;;;;;11.50;9.07;;;13.30;89.80;;;;;;5038688;28;20029;-72
2021/04/29 07:52:34;;;;;;;12.10;8.23;;;13.30;90.80;;;;;;5038068;28;20052;-72
2021/04/29 07:55:01;;;;;;;8.05;6.75;;;13.30;90.10;;;;;;5038647;28;20029;-72
2021/04/29 07:57:27;;;;;;;7.43;5.22;;;13.30;88.30;;;;;;5038505;28;20026;-72
2021/04/29 07:59:53;;;;;;;8.48;6.90;;;13.30;86.60;;;;;;5038373;28;20313;-72
2021/04/29 08:02:19;;;;;;;9.80;8.10;;;13.30;89.90;;;;;;5038145;28;20367;-72
2021/04/29 08:04:45;;;;;;;7.47;6.63;;;13.20;92.50;;;;;;5038313;28;20088;-72
2021/04/29 08:07:11;;;;;;;8.68;6.97;;;13.30;89.70;;;;;;5038050;28;20029;-72
2021/04/29 08:09:36;;;;;;;10.27;6.90;;;13.30;89.70;;;;;;5037979;28;20022;-72
2021/04/29 08:12:02;;;;;;;6.85;5.78;;;13.40;88.20;;;;;;5038002;28;20056;-72
2021/04/29 08:14:28;;;;;;;7.00;6.07;;;13.50;87.30;;;;;;5037844;28;20033;-72
2021/04/29 08:16:54;;;;;;;7.07;6.38;;;13.50;87.00;;;;;;5037876;28;20369;-72
2021/04/29 08:19:20;;;;;;;8.98;6.55;;;13.50;88.70;;;;;;5037777;28;20025;-72
2021/04/29 08:21:47;;;;;;;10.90;6.30;;;13.40;89.50;;;;;;5037791;28;20025;-72
2021/04/29 08:24:13;;;;;;;8.73;7.10;;;13.40;91.60;;;;;;5038078;28;20041;-72
2021/04/29 08:26:39;;;;;;;7.00;5.70;;;13.40;90.70;;;;;;5037920;28;20381;-72
2021/04/29 08:29:05;;;;;;;8.35;6.28;;;13.60;90.70;;;;;;5037581;28;20029;-72
2021/04/29 08:31:31;;;;;;;7.20;5.88;;;13.70;88.80;;;;;;5037552;28;20030;-72
2021/04/29 08:33:57;;;;;;;6.80;6.07;;;13.90;88.30;;;;;;5038113;28;20040;-72
2021/04/29 08:36:23;;;;;;;6.75;6.05;;;14.00;86.10;;;;;;5037497;28;20033;-72
2021/04/29 08:38:49;;;;;;;7.32;6.22;;;14.10;88.80;;;;;;5037211;28;20092;-72
2021/04/29 08:41:14;;;;;;;6.05;5.07;;;14.10;89.60;;;;;;5037343;28;20034;-72
2021/04/29 08:43:40;;;;;;;5.97;5.18;;;14.30;87.10;;;;;;5037300;28;20029;-72
2021/04/29 08:46:06;;;;;;;5.30;4.72;;;14.50;86.10;;;;;;5037613;28;20045;-72
2021/04/29 08:48:32;;;;;;;5.75;4.68;;;14.60;81.10;;;;;;5037273;28;20030;-72
2021/04/29 08:50:58;;;;;;;9.30;5.40;;;14.70;81.40;;;;;;5037556;28;20053;-72
2021/04/29 08:53:24;;;;;;;6.90;4.75;;;14.60;86.30;;;;;;5037521;28;20426;-72
2021/04/29 08:55:50;;;;;;;6.53;4.95;;;14.50;86.60;;;;;;5037117;28;20421;-72
2021/04/29 08:58:16;;;;;;;5.88;4.70;;;14.60;84.00;;;;;;5036381;28;20026;-72
2021/04/29 09:00:42;;;;;;;5.78;4.70;;;14.90;83.70;;;;;;5036993;28;20041;-72
2021/04/29 09:03:08;;;;;;;9.10;4.45;;;15.20;79.80;;;;;;5037327;28;20030;-72
2021/04/29 09:05:35;;;;;;;4.20;3.65;;;15.10;78.90;;;;;;5036669;28;20406;-72
2021/04/29 09:08:04;;;;;;;5.80;4.65;;;15.20;78.20;;;;;;5037000;28;20017;-72
2021/04/29 09:10:32;;;;;;;5.80;4.63;;;15.20;81.50;;;;;;5037231;28;20036;-72
2021/04/29 09:13:00;;;;;;;5.15;4.65;;;15.30;83.20;;;;;;5037147;28;20321;-72
2021/04/29 09:15:33;;;;;;;5.72;4.95;;;15.30;84.40;;;;;;5036776;28;20406;-72
2021/04/29 09:18:10;;;;;;;8.45;5.90;;;15.50;84.40;;;;;;5036840;28;20034;-72
2021/04/29 09:20:37;;;;;;;12.40;6.40;;;15.70;82.50;;;;;;5036995;28;20041;-72
2021/04/29 09:23:07;;;;;;;6.40;5.80;;;15.90;85.80;;;;;;5037049;28;20025;-72
2021/04/29 09:25:35;;;;;;;8.40;6.75;;;16.10;83.50;;;;;;5036653;28;20048;-72
2021/04/29 09:28:02;;;;;;;8.10;5.28;;;16.40;80.30;;;;;;5037510;28;20021;-72
2021/04/29 09:30:29;;;;;;;7.13;5.03;;;16.50;80.00;;;;;;5036998;28;20044;-72
2021/04/29 09:33:00;;;;;;;6.57;4.38;;;16.40;79.80;;;;;;5037153;28;20037;-72
2021/04/29 09:35:27;;;;;;;6.95;4.97;;;16.30;80.70;;;;;;5036850;28;20291;-72
2021/04/29 09:37:59;;;;;;;5.32;4.82;;;16.40;81.50;;;;;;5036868;28;20028;-72
2021/04/29 09:40:33;;;;;;;6.07;4.82;;;16.60;77.40;;;;;;5036452;28;20093;-72
2021/04/29 09:43:00;;;;;;;5.85;4.85;;;16.80;77.30;;;;;;5036492;28;20460;-72
2021/04/29 09:45:30;;;;;;;5.00;4.43;;;16.70;80.10;;;;;;5036754;28;20321;-72
2021/04/29 09:48:00;;;;;;;4.43;3.97;;;16.60;75.30;;;;;;5036830;28;20080;-72
2021/04/29 09:50:41;;;;;;;5.95;4.72;;;16.30;77.20;;;;;;5036815;28;20126;-72
2021/04/29 09:53:10;;;;;;;6.47;3.75;;;16.10;77.90;;;;;;5036436;28;20033;-72
2021/04/29 09:55:47;;;;;;;5.50;4.47;;;16.00;79.10;;;;;;5036635;28;20041;-72
2021/04/29 09:58:19;;;;;;;6.07;4.18;;;16.50;80.50;;;;;;5036486;28;20041;-72
2021/04/29 10:00:49;;;;;;;4.88;4.38;;;16.70;79.50;;;;;;5036652;28;20360;-72
2021/04/29 10:03:17;;;;;;;6.05;4.10;;;16.70;77.40;;;;;;5036450;28;20017;-72
2021/04/29 10:05:43;;;;;;;6.53;4.15;;;16.50;78.00;;;;;;5036268;28;20053;-72
2021/04/29 10:08:15;;;;;;;5.95;4.70;;;16.50;80.20;;;;;;5036332;28;20076;-72
2021/04/29 10:10:48;;;;;;;4.90;4.20;;;16.30;77.60;;;;;;5036271;28;20068;-72
2021/04/29 10:13:17;;;;;;;5.45;4.60;;;16.30;77.00;;;;;;5035913;28;20033;-72
2021/04/29 10:15:44;;;;;;;4.65;4.15;;;16.30;78.40;;;;;;5040343;28;20437;-72
2021/04/29 10:18:11;;;;;;;5.13;4.30;;;16.30;78.20;;;;;;5053105;28;20316;-72
2021/04/29 10:20:39;;;;;;;7.50;4.95;;;16.30;78.30;;;;;;5059956;28;20055;-72
2021/04/29 10:23:09;;;;;;;5.95;5.00;;;16.20;78.70;;;;;;5060208;28;20021;-72
2021/04/29 10:25:36;;;;;;;5.78;5.03;;;16.10;76.80;;;;;;5060189;28;20033;-72
2021/04/29 10:28:04;;;;;;;6.43;5.35;;;15.90;80.10;;;;;;5060196;28;20027;-72
2021/04/29 10:30:37;;;;;;;7.47;5.30;;;15.90;79.50;;;;;;5060110;28;20033;-72
2021/04/29 10:33:18;;;;;;;9.35;5.20;;;15.70;78.90;;;;;;5060076;28;20317;-72
2021/04/29 10:35:54;;;;;;;6.25;5.40;;;15.80;79.10;;;;;;5059660;28;20029;-72
2021/04/29 10:38:29;;;;;;;7.15;5.75;;;15.80;79.80;;;;;;5059947;28;20029;-72
2021/04/29 10:40:56;;;;;;;7.10;4.32;;;15.80;78.30;;;;;;5059431;28;20056;-72
2021/04/29 10:43:32;;;;;;;5.32;4.65;;;15.60;81.60;;;;;;5059599;28;20032;-72
2021/04/29 10:46:01;;;;;;;4.30;3.90;;;15.60;78.00;;;;;;5059519;28;20052;-72
2021/04/29 10:48:27;;;;;;;6.90;3.80;;;15.50;79.40;;;;;;5059785;28;20049;-72
2021/04/29 10:50:53;;;;;;;6.32;4.65;;;15.40;79.90;;;;;;5059462;28;20052;-72
2021/04/29 10:53:33;;;;;;;4.78;3.60;;;15.30;78.70;;;;;;5059460;28;20071;-72
2021/04/29 10:56:03;;;;;;;3.63;3.15;;;15.20;78.90;;;;;;5059661;28;20337;-72
2021/04/29 10:58:30;;;;;;;6.00;4.05;;;15.20;79.00;;;;;;5059674;28;20090;-72
2021/04/29 11:01:01;;;;;;;6.85;3.92;;;15.40;78.30;;;;;;5059249;28;20040;-72
2021/04/29 11:03:53;;;;;;;4.80;3.72;;;15.60;78.70;;;;;;5059087;28;20025;-72
2021/04/29 11:06:25;;;;;;;6.07;4.28;;;15.90;79.70;;;;;;5058962;28;20037;-72
2021/04/29 11:08:53;;;;;;;7.70;4.68;;;16.10;77.20;;;;;;5059409;28;20031;-72
2021/04/29 11:11:27;;;;;;;6.70;4.50;;;16.20;77.60;;;;;;5059359;28;20078;-72
2021/04/29 11:14:04;;;;;;;5.20;4.13;;;16.30;78.00;;;;;;5058949;28;20028;-72
2021/04/29 11:16:48;;;;;;;4.80;4.30;;;16.20;77.20;;;;;;5059242;28;20037;-72
2021/04/29 11:19:36;;;;;;;5.57;4.78;;;16.00;75.70;;;;;;5058976;28;20036;-72
2021/04/29 11:22:03;;;;;;;12.63;4.80;;;15.80;78.20;;;;;;5059174;28;20029;-72
2021/04/29 11:24:38;;;;;;;8.38;4.78;;;15.70;76.80;;;;;;5058638;28;20120;-72
2021/04/29 11:27:04;;;;;;;4.70;4.20;;;15.60;80.40;;;;;;5058787;28;20033;-72
2021/04/29 11:29:37;;;;;;;6.25;4.20;;;15.60;77.70;;;;;;5058090;28;20028;-72
2021/04/29 11:32:03;;;;;;;5.95;4.28;;;15.70;77.20;;;;;;5057673;28;20031;-72
2021/04/29 11:34:42;;;;;;;4.20;3.58;;;15.70;82.80;;;;;;5058559;28;20120;-72
2021/04/29 11:37:08;;;;;;;6.32;4.20;;;15.80;79.20;;;;;;5058913;28;20029;-72
2021/04/29 11:39:34;;;;;;;6.28;4.20;;;15.70;77.10;;;;;;5058252;28;20048;-72
2021/04/29 11:41:59;;;;;;;4.50;3.72;;;15.60;77.80;;;;;;5058453;28;20021;-72
2021/04/29 11:44:27;;;;;;;5.05;4.32;;;15.50;77.90;;;;;;5058411;28;20112;-72
2021/04/29 11:46:53;;;;;;;5.82;4.53;;;15.50;76.30;;;;;;5058358;28;20021;-72
2021/04/29 11:49:19;;;;;;;4.45;3.92;;;15.50;77.50;;;;;;5058347;28;20104;-72
2021/04/29 11:51:49;;;;;;;5.25;4.35;;;15.40;78.40;;;;;;5058337;28;20052;-72
2021/04/29 11:54:17;;;;;;;6.75;3.90;;;15.40;78.20;;;;;;5058678;28;20372;-72
2021/04/29 11:56:47;;;;;;;4.22;3.83;;;15.40;80.50;;;;;;5058523;28;20367;-72
2021/04/29 11:59:15;;;;;;;6.05;4.07;;;15.50;78.60;;;;;;5057196;28;20025;-72
2021/04/29 12:01:42;;;;;;;5.47;4.18;;;15.60;79.40;;;;;;5058083;28;20111;-72
2021/04/29 12:04:22;;;;;;;4.60;3.88;;;15.50;81.50;;;;;;5058341;28;20029;-72
2021/04/29 12:06:52;;;;;;;5.78;4.72;;;15.50;80.80;;;;;;5058054;28;20025;-72
2021/04/29 12:09:19;;;;;;;6.00;4.85;;;15.40;79.10;;;;;;5058227;28;20036;-72
2021/04/29 12:11:45;;;;;;;7.20;4.93;;;15.40;80.60;;;;;;5057964;28;20425;-72
2021/04/29 12:14:21;;;;;;;6.07;5.15;;;15.50;79.50;;;;;;5057822;28;20025;-72
2021/04/29 12:16:48;;;;;;;7.22;5.20;;;15.60;81.00;;;;;;5058174;28;20029;-72
2021/04/29 12:19:14;;;;;;;6.00;5.40;;;15.50;80.80;;;;;;5058125;28;20132;-72
2021/04/29 12:21:43;;;;;;;8.43;6.18;;;15.30;79.00;;;;;;5056633;28;20175;-72
2021/04/29 12:24:10;;;;;;;5.72;5.07;;;15.30;81.20;;;;;;5058023;28;20032;-72
2021/04/29 12:26:41;;;;;;;6.07;5.40;;;15.20;79.20;;;;;;5057630;28;20019;-72
2021/04/29 12:29:09;;;;;;;6.03;5.43;;;15.30;82.60;;;;;;5057881;28;20032;-72
2021/04/29 12:31:37;;;;;;;7.80;5.28;;;15.40;82.60;;;;;;5057568;28;20021;-72
2021/04/29 12:34:15;;;;;;;5.60;4.93;;;15.50;78.40;;;;;;5057711;28;20036;-72
2021/04/29 12:36:52;;;;;;;9.10;5.13;;;15.60;79.90;;;;;;5057756;28;20029;-72
2021/04/29 12:39:20;;;;;;;7.32;4.68;;;15.50;80.90;;;;;;5056591;28;20052;-72
2021/04/29 12:41:57;;;;;;;9.57;5.22;;;15.40;78.70;;;;;;5057012;28;20413;-72
2021/04/29 12:44:45;;;;;;;6.43;5.10;;;15.50;77.90;;;;;;5057264;28;20039;-72